Time;durP1;ratioP1;P1;durP2;ratioP2;P2;SDS_P1;SDS_P2;PMS_P1;PMS_P2;Temp;Humidity;BMP_temperature;BMP_pressure;BME280_temperature;BME280_humidity;BME280_pressure;Samples;Min_cycle;Max_cycle;Signal;HPM_P1;HPM_P2
2023/02/28 00:00:28;;;;;;;18.48;11.98;;;;;;;;;;5033466;28;20017;-61
2023/02/28 00:02:54;;;;;;;18.52;11.50;;;;;;;;;;5033491;28;20520;-58
2023/02/28 00:05:21;;;;;;;19.85;11.77;;;;;;;;;;5033202;28;20120;-59
2023/02/28 00:07:48;;;;;;;18.20;11.80;;;;;;;;;;5047679;28;20093;-59
2023/02/28 00:10:15;;;;;;;18.40;11.55;;;;;;;;;;5033264;28;20017;-57
2023/02/28 00:12:41;;;;;;;18.05;11.77;;;;;;;;;;5050885;28;20020;-61
2023/02/28 00:15:09;;;;;;;21.13;12.57;;;;;;;;;;5050464;28;20017;-61
2023/02/28 00:17:35;;;;;;;19.63;11.75;;;;;;;;;;5050800;28;20025;-60
2023/02/28 00:20:11;;;;;;;18.85;11.85;;;;;;;;;;5034986;28;20028;-60
2023/02/28 00:22:38;;;;;;;19.40;12.68;;;;;;;;;;5052924;28;20067;-60
2023/02/28 00:25:04;;;;;;;21.00;12.15;;;;;;;;;;5035684;28;20028;-61
2023/02/28 00:27:31;;;;;;;18.08;11.88;;;;;;;;;;5053927;28;20033;-61
2023/02/28 00:29:57;;;;;;;19.60;12.05;;;;;;;;;;5036022;28;20087;-61
2023/02/28 00:32:23;;;;;;;18.40;12.02;;;;;;;;;;5053745;28;20028;-61
2023/02/28 00:34:49;;;;;;;18.50;12.15;;;;;;;;;;5053376;28;20393;-61
2023/02/28 00:37:15;;;;;;;18.80;13.00;;;;;;;;;;5053652;28;20047;-62
2023/02/28 00:39:41;;;;;;;19.35;12.32;;;;;;;;;;5053752;28;20021;-59
2023/02/28 00:42:07;;;;;;;17.77;11.80;;;;;;;;;;5035969;28;20094;-62
2023/02/28 00:44:34;;;;;;;22.10;13.23;;;;;;;;;;5053393;28;20025;-60
2023/02/28 00:47:00;;;;;;;17.75;11.98;;;;;;;;;;5053700;28;20492;-61
2023/02/28 00:49:27;;;;;;;19.60;12.23;;;;;;;;;;5053563;28;20037;-61
2023/02/28 00:51:54;;;;;;;17.65;12.82;;;;;;;;;;5035896;28;20025;-61
2023/02/28 00:54:20;;;;;;;20.35;12.45;;;;;;;;;;5053450;28;20025;-61
2023/02/28 00:56:46;;;;;;;19.08;12.45;;;;;;;;;;5053503;28;20482;-60
2023/02/28 00:59:12;;;;;;;18.42;12.40;;;;;;;;;;5035575;28;20052;-61
2023/02/28 01:01:38;;;;;;;18.42;12.65;;;;;;;;;;5035584;28;20048;-60
2023/02/28 01:04:04;;;;;;;18.88;12.20;;;;;;;;;;5053304;28;20428;-61
2023/02/28 01:06:31;;;;;;;19.25;11.90;;;;;;;;;;5035653;28;20025;-61
2023/02/28 01:08:57;;;;;;;18.77;12.45;;;;;;;;;;5053458;28;20025;-61
2023/02/28 01:11:23;;;;;;;18.40;12.75;;;;;;;;;;5053248;28;20090;-60
2023/02/28 01:13:49;;;;;;;23.13;12.32;;;;;;;;;;5035046;28;20040;-61
2023/02/28 01:16:15;;;;;;;19.98;12.55;;;;;;;;;;5035311;28;20029;-61
2023/02/28 01:18:42;;;;;;;19.30;11.90;;;;;;;;;;5053329;28;20021;-61
2023/02/28 01:21:09;;;;;;;20.88;12.73;;;;;;;;;;5053219;28;20036;-61
2023/02/28 01:23:35;;;;;;;20.38;12.60;;;;;;;;;;5052868;28;20033;-61
2023/02/28 01:26:08;;;;;;;18.98;12.85;;;;;;;;;;5053209;28;20047;-61
2023/02/28 01:28:35;;;;;;;19.55;13.15;;;;;;;;;;5052870;28;20028;-60
2023/02/28 01:31:01;;;;;;;19.67;13.55;;;;;;;;;;5035029;28;20036;-60
2023/02/28 01:33:27;;;;;;;20.00;12.40;;;;;;;;;;5034850;28;20110;-60
2023/02/28 01:36:03;;;;;;;21.38;13.50;;;;;;;;;;5052859;28;20029;-61
2023/02/28 01:38:29;;;;;;;21.25;12.57;;;;;;;;;;5034901;28;20052;-61
2023/02/28 01:40:55;;;;;;;19.65;13.15;;;;;;;;;;5052780;28;20511;-61
2023/02/28 01:43:26;;;;;;;18.80;12.95;;;;;;;;;;5052433;28;20029;-61
2023/02/28 01:45:53;;;;;;;19.20;12.45;;;;;;;;;;5034847;28;20035;-60
2023/02/28 01:48:21;;;;;;;19.77;12.57;;;;;;;;;;5051360;28;20024;-61
2023/02/28 01:50:48;;;;;;;17.77;12.90;;;;;;;;;;5052354;28;20061;-61
2023/02/28 01:53:16;;;;;;;19.27;13.07;;;;;;;;;;5052263;28;20068;-61
2023/02/28 01:55:44;;;;;;;21.60;13.23;;;;;;;;;;5052608;28;20025;-60
2023/02/28 01:58:10;;;;;;;21.40;13.95;;;;;;;;;;5034690;28;20055;-60
2023/02/28 02:00:36;;;;;;;21.70;14.95;;;;;;;;;;5052650;28;20017;-60
2023/02/28 02:03:10;;;;;;;21.95;13.85;;;;;;;;;;5052227;28;20577;-57
2023/02/28 02:05:37;;;;;;;22.17;14.02;;;;;;;;;;5034426;28;20028;-60
2023/02/28 02:08:05;;;;;;;21.15;14.88;;;;;;;;;;5052154;28;20083;-60
2023/02/28 02:10:34;;;;;;;20.38;13.93;;;;;;;;;;5034305;28;20530;-60
2023/02/28 02:13:00;;;;;;;18.15;13.15;;;;;;;;;;5034260;28;20029;-60
2023/02/28 02:15:39;;;;;;;19.88;13.65;;;;;;;;;;5051856;28;20082;-61
2023/02/28 02:18:11;;;;;;;21.40;14.43;;;;;;;;;;5052258;28;20059;-61
2023/02/28 02:20:56;;;;;;;20.63;14.55;;;;;;;;;;5051920;28;20071;-60
2023/02/28 02:23:39;;;;;;;21.85;14.93;;;;;;;;;;5051926;28;20021;-60
2023/02/28 02:26:05;;;;;;;19.65;14.18;;;;;;;;;;5052119;28;20017;-60
2023/02/28 02:28:38;;;;;;;21.15;14.68;;;;;;;;;;5051766;28;20074;-59
2023/02/28 02:31:04;;;;;;;24.58;14.57;;;;;;;;;;5034298;28;20029;-60
2023/02/28 02:33:49;;;;;;;19.63;13.95;;;;;;;;;;5033927;28;20013;-60
2023/02/28 02:36:24;;;;;;;21.27;14.65;;;;;;;;;;5051882;28;20111;-60
2023/02/28 02:38:59;;;;;;;20.60;14.00;;;;;;;;;;5051897;28;20025;-60
2023/02/28 02:41:34;;;;;;;19.70;14.25;;;;;;;;;;5034143;28;20029;-61
2023/02/28 02:44:23;;;;;;;22.27;14.63;;;;;;;;;;5051693;28;20116;-60
2023/02/28 02:46:51;;;;;;;20.35;14.85;;;;;;;;;;5038912;28;20045;-58
2023/02/28 02:49:23;;;;;;;22.25;14.98;;;;;;;;;;5045957;22;20069;-60
2023/02/28 02:51:50;;;;;;;23.55;15.45;;;;;;;;;;5011999;28;20045;-62
2023/02/28 02:54:18;;;;;;;21.67;15.45;;;;;;;;;;5010644;28;20030;-63
2023/02/28 02:56:46;;;;;;;24.05;16.02;;;;;;;;;;5012220;28;20030;-63
2023/02/28 02:59:13;;;;;;;21.50;15.37;;;;;;;;;;5012747;28;20109;-62
2023/02/28 03:01:41;;;;;;;24.80;16.40;;;;;;;;;;5010153;28;20033;-63
2023/02/28 03:04:12;;;;;;;24.45;15.75;;;;;;;;;;5010671;28;20029;-63
2023/02/28 03:06:38;;;;;;;23.20;16.17;;;;;;;;;;5010996;28;20033;-63
2023/02/28 03:09:04;;;;;;;26.50;15.43;;;;;;;;;;5012085;28;20467;-62
2023/02/28 03:11:35;;;;;;;21.08;15.80;;;;;;;;;;5011868;28;20026;-62
2023/02/28 03:14:19;;;;;;;19.75;15.35;;;;;;;;;;5011713;28;20025;-62
2023/02/28 03:16:45;;;;;;;21.73;14.73;;;;;;;;;;5010781;28;20510;-63
2023/02/28 03:19:20;;;;;;;20.27;14.25;;;;;;;;;;5010649;28;20026;-63
2023/02/28 03:22:01;;;;;;;21.08;14.63;;;;;;;;;;5010614;28;20375;-62
2023/02/28 03:24:38;;;;;;;20.42;14.35;;;;;;;;;;5011833;28;20719;-62
2023/02/28 03:27:24;;;;;;;20.75;14.45;;;;;;;;;;5012141;28;20076;-63
2023/02/28 03:30:02;;;;;;;20.80;14.43;;;;;;;;;;5010522;28;20485;-62
2023/02/28 03:32:28;;;;;;;;;;;;;;;;;;5012338;28;20470;-60
2023/02/28 03:35:00;;;;;;;22.73;13.95;;;;;;;;;;5011713;28;20008;-62
2023/02/28 03:37:29;;;;;;;20.88;14.25;;;;;;;;;;5010716;28;20501;-62
2023/02/28 03:39:54;;;;;;;;;;;;;;;;;;5011353;28;20026;-63
2023/02/28 03:42:26;;;;;;;19.88;13.98;;;;;;;;;;5010603;28;19912;-63
2023/02/28 03:44:58;;;;;;;22.80;14.18;;;;;;;;;;5011816;28;20485;-62
2023/02/28 03:47:27;;;;;;;18.23;13.90;;;;;;;;;;5011801;28;20065;-64
2023/02/28 03:49:59;;;;;;;25.85;15.02;;;;;;;;;;5010432;28;20154;-62
2023/02/28 03:52:28;;;;;;;21.75;14.18;;;;;;;;;;5011651;28;20084;-63
2023/02/28 03:54:56;;;;;;;20.05;14.57;;;;;;;;;;5010363;28;20109;-61
2023/02/28 03:57:28;;;;;;;18.42;13.27;;;;;;;;;;5011937;28;20478;-61
2023/02/28 04:00:00;;;;;;;19.85;13.90;;;;;;;;;;5012467;28;20033;-60
2023/02/28 04:02:26;;;;;;;21.27;14.13;;;;;;;;;;5011947;28;20394;-61
2023/02/28 04:04:52;;;;;;;19.67;13.93;;;;;;;;;;5011360;28;20037;-61
2023/02/28 04:07:19;;;;;;;19.08;13.60;;;;;;;;;;5011599;28;20022;-60
2023/02/28 04:09:45;;;;;;;18.65;13.60;;;;;;;;;;5010393;28;20355;-61
2023/02/28 04:12:11;;;;;;;21.60;13.30;;;;;;;;;;5012562;28;20108;-61
2023/02/28 04:14:37;;;;;;;19.50;13.18;;;;;;;;;;5013252;28;20018;-60
2023/02/28 04:17:03;;;;;;;19.83;14.38;;;;;;;;;;5013854;28;20026;-61
2023/02/28 04:19:29;;;;;;;18.63;13.45;;;;;;;;;;5015163;28;20026;-62
2023/02/28 04:21:55;;;;;;;19.10;13.80;;;;;;;;;;5015131;28;20096;-61
2023/02/28 04:24:22;;;;;;;20.48;14.23;;;;;;;;;;5013456;28;20494;-62
2023/02/28 04:26:52;;;;;;;19.80;14.25;;;;;;;;;;5013882;28;20056;-61
2023/02/28 04:29:19;;;;;;;19.60;13.82;;;;;;;;;;5014725;28;20058;-61
2023/02/28 04:31:46;;;;;;;18.67;12.85;;;;;;;;;;5014371;28;20072;-61
2023/02/28 04:34:12;;;;;;;18.23;12.95;;;;;;;;;;5013269;28;20398;-61
2023/02/28 04:36:38;;;;;;;18.92;13.45;;;;;;;;;;5014646;28;20022;-61
2023/02/28 04:39:04;;;;;;;19.40;12.60;;;;;;;;;;5014654;28;20402;-62
2023/02/28 04:41:30;;;;;;;17.60;12.98;;;;;;;;;;5014430;28;20072;-61
2023/02/28 04:43:56;;;;;;;19.40;13.00;;;;;;;;;;5014065;28;20034;-62
2023/02/28 04:46:23;;;;;;;20.33;13.13;;;;;;;;;;5014631;28;20026;-61
2023/02/28 04:48:49;;;;;;;22.23;13.95;;;;;;;;;;5014322;28;20040;-61
2023/02/28 04:51:16;;;;;;;18.05;12.57;;;;;;;;;;5014558;28;20123;-61
2023/02/28 04:53:42;;;;;;;20.38;14.27;;;;;;;;;;5012955;28;20137;-61
2023/02/28 04:56:10;;;;;;;20.13;13.23;;;;;;;;;;5013118;28;20022;-61
2023/02/28 04:58:37;;;;;;;21.00;14.02;;;;;;;;;;5012937;28;20387;-61
2023/02/28 05:01:12;;;;;;;18.48;13.32;;;;;;;;;;5012904;28;20084;-61
2023/02/28 05:03:40;;;;;;;18.52;13.27;;;;;;;;;;5012618;28;20025;-62
2023/02/28 05:06:07;;;;;;;18.75;13.65;;;;;;;;;;5014215;28;20026;-61
2023/02/28 05:08:33;;;;;;;19.42;13.10;;;;;;;;;;5013963;28;20033;-61
2023/02/28 05:11:00;;;;;;;19.75;13.35;;;;;;;;;;5014336;28;20022;-61
2023/02/28 05:13:26;;;;;;;20.83;13.38;;;;;;;;;;5014081;28;20109;-62
2023/02/28 05:15:52;;;;;;;21.63;14.30;;;;;;;;;;5014073;28;20057;-61
2023/02/28 05:18:18;;;;;;;20.83;13.02;;;;;;;;;;5013995;28;20072;-61
2023/02/28 05:20:44;;;;;;;20.05;13.63;;;;;;;;;;5013848;28;20045;-59
2023/02/28 05:23:14;;;;;;;18.90;12.93;;;;;;;;;;5012015;28;20018;-61
2023/02/28 05:25:41;;;;;;;17.90;13.00;;;;;;;;;;5013642;28;20025;-61
2023/02/28 05:28:07;;;;;;;20.15;13.98;;;;;;;;;;5012581;28;20088;-59
2023/02/28 05:30:33;;;;;;;19.75;12.93;;;;;;;;;;5012224;28;20026;-61
2023/02/28 05:33:00;;;;;;;18.73;12.55;;;;;;;;;;5013283;28;20021;-62
2023/02/28 05:35:26;;;;;;;18.40;12.27;;;;;;;;;;5013394;28;20056;-61
2023/02/28 05:37:52;;;;;;;20.48;12.23;;;;;;;;;;5013672;28;20029;-62
2023/02/28 05:40:22;;;;;;;19.65;12.85;;;;;;;;;;5013436;28;20030;-61
2023/02/28 05:42:48;;;;;;;17.75;12.45;;;;;;;;;;5008225;28;20125;-61
2023/02/28 05:45:14;;;;;;;20.98;11.90;;;;;;;;;;5004742;28;20022;-61
2023/02/28 05:47:40;;;;;;;17.05;12.07;;;;;;;;;;5013225;28;20030;-61
2023/02/28 05:50:06;;;;;;;20.45;13.60;;;;;;;;;;5011381;28;20413;-62
2023/02/28 05:52:32;;;;;;;20.02;12.50;;;;;;;;;;5011473;28;20485;-61
2023/02/28 05:54:58;;;;;;;20.00;13.02;;;;;;;;;;5012654;28;20033;-62
2023/02/28 05:57:24;;;;;;;17.98;12.05;;;;;;;;;;5006033;28;20023;-61
2023/02/28 05:59:50;;;;;;;19.02;12.35;;;;;;;;;;4993090;28;20026;-60
2023/02/28 06:02:17;;;;;;;18.50;12.10;;;;;;;;;;5007203;28;20402;-61
2023/02/28 06:04:44;;;;;;;20.40;12.07;;;;;;;;;;5012293;28;20029;-61
2023/02/28 06:07:10;;;;;;;20.02;12.20;;;;;;;;;;4993134;28;20114;-63
2023/02/28 06:09:36;;;;;;;18.30;11.98;;;;;;;;;;4996637;28;20029;-61
2023/02/28 06:12:05;;;;;;;24.88;13.13;;;;;;;;;;5012635;28;20033;-62
2023/02/28 06:14:31;;;;;;;20.20;12.73;;;;;;;;;;5011245;28;20018;-61
2023/02/28 06:16:57;;;;;;;19.70;12.60;;;;;;;;;;5012571;28;20045;-61
2023/02/28 06:19:25;;;;;;;17.20;11.43;;;;;;;;;;4996892;28;20418;-61
2023/02/28 06:21:52;;;;;;;17.25;11.38;;;;;;;;;;4992330;28;20026;-62
2023/02/28 06:24:18;;;;;;;18.70;11.63;;;;;;;;;;4992263;28;20022;-60
2023/02/28 06:26:45;;;;;;;19.30;11.98;;;;;;;;;;4992531;28;20031;-61
2023/02/28 06:29:11;;;;;;;19.75;12.25;;;;;;;;;;4993103;28;20030;-62
2023/02/28 06:31:38;;;;;;;19.67;11.65;;;;;;;;;;4991878;28;20045;-61
2023/02/28 06:34:04;;;;;;;18.80;11.70;;;;;;;;;;4992557;28;20030;-62
2023/02/28 06:36:30;;;;;;;20.02;11.60;;;;;;;;;;5008089;28;20423;-62
2023/02/28 06:38:56;;;;;;;18.30;11.38;;;;;;;;;;5010995;28;20029;-57
2023/02/28 06:41:26;;;;;;;18.10;11.63;;;;;;;;;;5011408;28;20124;-63
2023/02/28 06:43:52;;;;;;;20.42;11.90;;;;;;;;;;5011383;28;20069;-61
2023/02/28 06:46:19;;;;;;;19.60;12.65;;;;;;;;;;5011642;28;20494;-60
2023/02/28 06:48:45;;;;;;;21.05;13.15;;;;;;;;;;5009933;28;20034;-60
2023/02/28 06:51:13;;;;;;;19.60;11.38;;;;;;;;;;5011529;28;20185;-65
2023/02/28 06:53:40;;;;;;;19.50;11.75;;;;;;;;;;5010194;28;20109;-58
2023/02/28 06:56:07;;;;;;;20.63;12.25;;;;;;;;;;5011736;28;20044;-62
2023/02/28 06:58:33;;;;;;;21.00;12.25;;;;;;;;;;5012140;28;20033;-59
2023/02/28 07:00:59;;;;;;;22.58;12.60;;;;;;;;;;5010040;28;20026;-61
2023/02/28 07:03:25;;;;;;;19.30;11.95;;;;;;;;;;5010988;28;20109;-61
2023/02/28 07:05:51;;;;;;;19.08;11.10;;;;;;;;;;5011517;28;20037;-61
2023/02/28 07:08:17;;;;;;;19.27;11.23;;;;;;;;;;5011876;28;20029;-61
2023/02/28 07:10:44;;;;;;;19.27;11.80;;;;;;;;;;5011354;28;20034;-61
2023/02/28 07:13:10;;;;;;;16.73;10.45;;;;;;;;;;5011056;28;20037;-60
2023/02/28 07:15:39;;;;;;;19.65;11.60;;;;;;;;;;5010133;28;20018;-63
2023/02/28 07:18:05;;;;;;;18.15;10.93;;;;;;;;;;5011541;28;20025;-62
2023/02/28 07:20:31;;;;;;;19.90;11.52;;;;;;;;;;5011307;28;20033;-56
2023/02/28 07:22:57;;;;;;;21.25;11.38;;;;;;;;;;5010560;28;20029;-61
2023/02/28 07:25:24;;;;;;;17.80;11.18;;;;;;;;;;5010317;28;20084;-60
2023/02/28 07:27:50;;;;;;;19.17;12.20;;;;;;;;;;5011791;28;20026;-61
2023/02/28 07:30:16;;;;;;;20.77;12.48;;;;;;;;;;5010919;28;20022;-61
2023/02/28 07:32:42;;;;;;;19.70;12.50;;;;;;;;;;5010369;28;20026;-60
2023/02/28 07:35:08;;;;;;;22.50;12.45;;;;;;;;;;5010969;28;20022;-61
2023/02/28 07:37:37;;;;;;;23.15;12.88;;;;;;;;;;5009982;28;20578;-60
2023/02/28 07:40:08;;;;;;;24.40;13.55;;;;;;;;;;5011562;28;20057;-60
2023/02/28 07:42:34;;;;;;;23.70;12.35;;;;;;;;;;5010062;28;20029;-62
2023/02/28 07:45:00;;;;;;;21.92;13.05;;;;;;;;;;5011443;28;20335;-58
2023/02/28 07:47:26;;;;;;;19.63;12.73;;;;;;;;;;5012181;28;20033;-61
2023/02/28 07:49:52;;;;;;;18.77;12.10;;;;;;;;;;5014506;28;20030;-59
2023/02/28 07:52:18;;;;;;;20.15;12.18;;;;;;;;;;5014009;28;20041;-60
2023/02/28 07:54:44;;;;;;;18.98;12.43;;;;;;;;;;5013679;28;20033;-59
2023/02/28 07:57:10;;;;;;;18.80;10.75;;;;;;;;;;5014591;28;20080;-61
2023/02/28 07:59:36;;;;;;;18.80;11.52;;;;;;;;;;5015038;28;20033;-57
2023/02/28 08:02:03;;;;;;;19.08;11.07;;;;;;;;;;5014949;28;20030;-61
2023/02/28 08:04:32;;;;;;;19.17;10.70;;;;;;;;;;5013570;28;20477;-63
2023/02/28 08:06:57;;;;;;;20.45;11.32;;;;;;;;;;5015483;28;20453;-63
2023/02/28 08:09:24;;;;;;;18.67;10.80;;;;;;;;;;5014689;28;20069;-62
2023/02/28 08:11:50;;;;;;;18.58;11.68;;;;;;;;;;5013752;28;20076;-63
2023/02/28 08:14:16;;;;;;;21.67;11.65;;;;;;;;;;5015118;28;20026;-60
2023/02/28 08:16:42;;;;;;;16.85;11.02;;;;;;;;;;5015478;28;20049;-61
2023/02/28 08:19:09;;;;;;;20.20;11.10;;;;;;;;;;5015338;28;20065;-62
2023/02/28 08:21:35;;;;;;;18.45;11.48;;;;;;;;;;5015297;28;20022;-63
2023/02/28 08:24:01;;;;;;;17.30;10.02;;;;;;;;;;5014974;28;20030;-60
2023/02/28 08:26:27;;;;;;;16.80;10.35;;;;;;;;;;5014645;28;20041;-61
2023/02/28 08:28:53;;;;;;;19.02;11.20;;;;;;;;;;5015466;28;20022;-63
2023/02/28 08:31:19;;;;;;;16.55;9.88;;;;;;;;;;5015306;28;20479;-63
2023/02/28 08:33:47;;;;;;;18.27;11.25;;;;;;;;;;5014981;28;20022;-62
2023/02/28 08:36:13;;;;;;;16.35;10.10;;;;;;;;;;5015081;28;20018;-63
2023/02/28 08:38:39;;;;;;;17.48;10.05;;;;;;;;;;5015436;28;20049;-61
2023/02/28 08:41:07;;;;;;;18.17;9.68;;;;;;;;;;5010320;28;20034;-62
2023/02/28 08:43:33;;;;;;;17.08;10.10;;;;;;;;;;5008053;28;20121;-63
2023/02/28 08:45:59;;;;;;;17.42;10.05;;;;;;;;;;5015121;28;20052;-63
2023/02/28 08:48:27;;;;;;;17.38;10.63;;;;;;;;;;5013925;28;20073;-64
2023/02/28 08:50:57;;;;;;;18.27;10.23;;;;;;;;;;5031118;22;20402;-62
2023/02/28 08:53:23;;;;;;;17.73;10.23;;;;;;;;;;5013841;28;20026;-65
2023/02/28 08:55:56;;;;;;;17.20;10.30;;;;;;;;;;5015714;28;20036;-62
2023/02/28 08:58:22;;;;;;;15.95;9.43;;;;;;;;;;5032165;28;20037;-61
2023/02/28 09:00:48;;;;;;;16.83;9.27;;;;;;;;;;5015269;28;20095;-60
2023/02/28 09:03:14;;;;;;;15.45;9.18;;;;;;;;;;5017260;28;20092;-62
2023/02/28 09:05:40;;;;;;;14.40;8.68;;;;;;;;;;5013238;28;20048;-59
2023/02/28 09:08:06;;;;;;;17.92;9.57;;;;;;;;;;5013272;28;20486;-64
2023/02/28 09:10:32;;;;;;;14.18;8.35;;;;;;;;;;4995708;28;20026;-62
2023/02/28 09:12:58;;;;;;;14.68;8.68;;;;;;;;;;5012895;28;20029;-61
2023/02/28 09:15:24;;;;;;;15.05;9.23;;;;;;;;;;5013067;28;20029;-62
2023/02/28 09:17:50;;;;;;;15.38;9.32;;;;;;;;;;5013183;28;20033;-63
2023/02/28 09:20:16;;;;;;;16.42;10.32;;;;;;;;;;4995188;28;20026;-63
2023/02/28 09:22:42;;;;;;;15.70;8.95;;;;;;;;;;5011992;28;20026;-63
2023/02/28 09:25:08;;;;;;;16.58;9.75;;;;;;;;;;5013109;28;20066;-64
2023/02/28 09:27:34;;;;;;;15.70;9.10;;;;;;;;;;4996274;28;20088;-63
2023/02/28 09:30:00;;;;;;;16.80;9.45;;;;;;;;;;5013915;28;20438;-63
2023/02/28 09:32:26;;;;;;;15.43;9.60;;;;;;;;;;4995975;28;20061;-64
2023/02/28 09:34:53;;;;;;;15.98;9.13;;;;;;;;;;4996534;28;20030;-63
2023/02/28 09:37:19;;;;;;;14.43;9.23;;;;;;;;;;5013718;28;20026;-64
2023/02/28 09:39:45;;;;;;;15.55;9.05;;;;;;;;;;5013299;28;20100;-63
2023/02/28 09:42:30;;;;;;;16.02;9.35;;;;;;;;;;5013564;28;20032;-63
2023/02/28 09:44:56;;;;;;;14.77;8.93;;;;;;;;;;4995888;28;20018;-61
2023/02/28 09:47:34;;;;;;;16.70;9.10;;;;;;;;;;5013705;28;20506;-63
2023/02/28 09:50:07;;;;;;;16.95;9.05;;;;;;;;;;4996358;28;20033;-63
2023/02/28 09:52:34;;;;;;;15.57;8.98;;;;;;;;;;5013676;28;20087;-63
2023/02/28 09:55:15;;;;;;;15.10;10.07;;;;;;;;;;5013469;28;20029;-61
2023/02/28 09:57:42;;;;;;;15.35;8.85;;;;;;;;;;5013682;28;20057;-61
2023/02/28 10:00:09;;;;;;;15.07;9.35;;;;;;;;;;5013123;28;20018;-64
2023/02/28 10:02:47;;;;;;;14.35;9.10;;;;;;;;;;5012779;28;20426;-64
2023/02/28 10:05:24;;;;;;;14.57;8.90;;;;;;;;;;5012355;28;20498;-63
2023/02/28 10:08:04;;;;;;;14.50;8.82;;;;;;;;;;5012962;28;20057;-63
2023/02/28 10:10:33;;;;;;;16.27;8.95;;;;;;;;;;5013064;28;20029;-63
2023/02/28 10:13:00;;;;;;;15.75;9.18;;;;;;;;;;5011959;28;20094;-65
2023/02/28 10:15:28;;;;;;;14.75;9.60;;;;;;;;;;5012420;28;20101;-64
2023/02/28 10:17:57;;;;;;;15.93;9.40;;;;;;;;;;5012002;28;20494;-62
2023/02/28 10:20:29;;;;;;;16.00;9.63;;;;;;;;;;5011951;28;20025;-64
2023/02/28 10:23:09;;;;;;;17.60;8.80;;;;;;;;;;5011929;28;20113;-62
2023/02/28 10:25:37;;;;;;;16.67;10.50;;;;;;;;;;5011701;28;20376;-64
2023/02/28 10:28:10;;;;;;;15.75;9.50;;;;;;;;;;5011441;28;20026;-63
2023/02/28 10:30:44;;;;;;;19.65;10.07;;;;;;;;;;5011971;28;20030;-66
2023/02/28 10:33:22;;;;;;;14.98;9.25;;;;;;;;;;5011204;28;20034;-64
2023/02/28 10:35:48;;;;;;;16.35;9.77;;;;;;;;;;5012032;28;20438;-62
2023/02/28 10:38:22;;;;;;;15.68;9.15;;;;;;;;;;5011415;28;20037;-62
2023/02/28 10:40:48;;;;;;;14.70;9.80;;;;;;;;;;5010429;28;20108;-62
2023/02/28 10:43:14;;;;;;;15.00;9.13;;;;;;;;;;5012173;28;20101;-63
2023/02/28 10:45:53;;;;;;;16.35;9.48;;;;;;;;;;5006544;28;20787;-64
2023/02/28 10:48:19;;;;;;;20.25;10.20;;;;;;;;;;5002975;28;20026;-63
2023/02/28 10:50:49;;;;;;;16.60;9.43;;;;;;;;;;5011339;28;20394;-64
2023/02/28 10:53:38;;;;;;;15.30;9.70;;;;;;;;;;5013006;28;20029;-64
2023/02/28 10:56:07;;;;;;;18.98;9.90;;;;;;;;;;5001507;28;20368;-63
2023/02/28 10:58:46;;;;;;;14.93;9.13;;;;;;;;;;5011706;28;20018;-62
2023/02/28 11:01:17;;;;;;;15.23;9.68;;;;;;;;;;4987458;28;20089;-64
2023/02/28 11:03:44;;;;;;;15.55;9.55;;;;;;;;;;5010336;28;20030;-63
2023/02/28 11:06:16;;;;;;;14.40;9.50;;;;;;;;;;5012196;28;20026;-63
2023/02/28 11:08:53;;;;;;;15.30;9.43;;;;;;;;;;5012067;28;20029;-63
2023/02/28 11:11:20;;;;;;;16.60;9.88;;;;;;;;;;5011887;28;20367;-63
2023/02/28 11:13:47;;;;;;;15.18;9.70;;;;;;;;;;5018101;28;20474;-65
2023/02/28 11:16:15;;;;;;;15.50;9.60;;;;;;;;;;5013834;28;20045;-63
2023/02/28 11:18:43;;;;;;;15.68;9.80;;;;;;;;;;5011584;28;20036;-63
2023/02/28 11:21:10;;;;;;;15.88;10.32;;;;;;;;;;5011399;28;20034;-63
2023/02/28 11:23:37;;;;;;;14.70;9.15;;;;;;;;;;5014677;28;20030;-62
2023/02/28 11:26:10;;;;;;;15.00;9.48;;;;;;;;;;5015315;28;20026;-62
2023/02/28 11:28:38;;;;;;;14.70;9.60;;;;;;;;;;5006467;28;20034;-64
2023/02/28 11:31:16;;;;;;;16.08;9.90;;;;;;;;;;5040180;28;20030;-64
2023/02/28 11:33:50;;;;;;;15.35;10.50;;;;;;;;;;4997980;28;20021;-64
2023/02/28 11:36:16;;;;;;;14.85;9.60;;;;;;;;;;5015812;28;20417;-62
2023/02/28 11:38:42;;;;;;;15.10;9.88;;;;;;;;;;5011875;28;20021;-64
2023/02/28 11:41:11;;;;;;;17.73;10.27;;;;;;;;;;5006802;28;20045;-64
2023/02/28 11:43:37;;;;;;;19.02;11.35;;;;;;;;;;5010274;28;20010;-63
2023/02/28 11:46:09;;;;;;;15.13;9.95;;;;;;;;;;5014597;28;20478;-65
2023/02/28 11:48:48;;;;;;;15.23;10.02;;;;;;;;;;4991586;28;20104;-65
2023/02/28 11:51:30;;;;;;;15.25;10.45;;;;;;;;;;5009623;28;20041;-61
2023/02/28 11:54:08;;;;;;;15.50;10.07;;;;;;;;;;5011052;28;20100;-64
2023/02/28 11:56:38;;;;;;;18.63;10.85;;;;;;;;;;5007079;28;20486;-64
2023/02/28 11:59:04;;;;;;;15.80;9.85;;;;;;;;;;4994244;28;20037;-60
2023/02/28 12:01:36;;;;;;;15.25;9.95;;;;;;;;;;5014233;28;20501;-63
2023/02/28 12:04:02;;;;;;;16.45;10.57;;;;;;;;;;5014466;28;20030;-66
2023/02/28 12:06:30;;;;;;;15.25;10.40;;;;;;;;;;5014519;28;20030;-66
2023/02/28 12:09:14;;;;;;;17.27;10.32;;;;;;;;;;5014602;28;20033;-61
2023/02/28 12:11:55;;;;;;;18.15;11.10;;;;;;;;;;5014302;28;20048;-65
2023/02/28 12:14:29;;;;;;;17.50;11.40;;;;;;;;;;5013752;28;20025;-65
2023/02/28 12:17:18;;;;;;;16.15;10.60;;;;;;;;;;4992721;28;20022;-63
2023/02/28 12:19:44;;;;;;;17.48;10.60;;;;;;;;;;5019653;28;20302;-64
2023/02/28 12:22:22;;;;;;;14.90;10.27;;;;;;;;;;4994001;28;20026;-62
2023/02/28 12:24:53;;;;;;;16.13;10.77;;;;;;;;;;5013365;28;20161;-61
2023/02/28 12:27:22;;;;;;;18.10;10.43;;;;;;;;;;4666429;28;10000505;-64
2023/02/28 12:29:57;;;;;;;15.15;10.48;;;;;;;;;;5006082;28;20168;-63
2023/02/28 12:32:26;;;;;;;16.02;10.93;;;;;;;;;;4988314;28;20030;-66
2023/02/28 12:34:55;;;;;;;15.70;11.15;;;;;;;;;;5010811;28;20022;-65
2023/02/28 12:37:25;;;;;;;15.45;10.60;;;;;;;;;;5001636;28;20409;-62
2023/02/28 12:39:55;;;;;;;16.65;11.38;;;;;;;;;;4991226;28;20031;-62
2023/02/28 12:42:29;;;;;;;16.55;11.07;;;;;;;;;;4991494;28;20050;-64
2023/02/28 12:45:08;;;;;;;16.75;11.00;;;;;;;;;;4975088;28;20398;-63
2023/02/28 12:47:35;;;;;;;16.55;11.43;;;;;;;;;;5002976;28;20025;-63
2023/02/28 12:50:06;;;;;;;16.60;11.60;;;;;;;;;;5009346;28;20148;-63
2023/02/28 12:52:31;;;;;;;16.58;11.13;;;;;;;;;;5009481;28;20113;-64
2023/02/28 12:55:04;;;;;;;16.25;11.32;;;;;;;;;;5009606;28;20105;-64
2023/02/28 12:57:39;;;;;;;16.30;11.52;;;;;;;;;;4993464;28;20498;-62
2023/02/28 13:00:13;;;;;;;16.08;11.23;;;;;;;;;;5013102;28;20031;-63
2023/02/28 13:02:55;;;;;;;15.48;11.25;;;;;;;;;;5019719;28;20049;-63
2023/02/28 13:05:24;;;;;;;15.73;11.38;;;;;;;;;;5010475;28;20033;-64
2023/02/28 13:08:10;;;;;;;16.88;11.30;;;;;;;;;;5010562;28;20060;-63
2023/02/28 13:10:44;;;;;;;16.58;11.23;;;;;;;;;;4961464;28;20042;-64
2023/02/28 13:13:18;;;;;;;16.08;11.27;;;;;;;;;;4974693;28;20049;-64
2023/02/28 13:16:02;;;;;;;17.08;11.60;;;;;;;;;;4993979;28;20030;-64
2023/02/28 13:18:30;;;;;;;16.48;10.70;;;;;;;;;;4993680;28;20022;-64
2023/02/28 13:20:56;;;;;;;16.27;11.20;;;;;;;;;;4994807;28;20023;-62
2023/02/28 13:23:37;;;;;;;15.60;10.68;;;;;;;;;;4993498;28;20212;-66
2023/02/28 13:26:04;;;;;;;15.32;10.48;;;;;;;;;;4993676;28;20498;-64
2023/02/28 13:28:48;;;;;;;15.48;10.68;;;;;;;;;;4993294;28;20077;-64
2023/02/28 13:31:15;;;;;;;15.98;10.52;;;;;;;;;;4993592;28;20166;-63
2023/02/28 13:33:59;;;;;;;18.63;11.10;;;;;;;;;;4993345;28;20027;-65
2023/02/28 13:36:30;;;;;;;16.02;11.07;;;;;;;;;;4993413;28;20121;-64
2023/02/28 13:39:00;;;;;;;15.20;10.82;;;;;;;;;;4993116;28;20519;-62
2023/02/28 13:41:29;;;;;;;15.88;11.10;;;;;;;;;;4993217;28;20088;-62
2023/02/28 13:44:07;;;;;;;16.40;11.18;;;;;;;;;;4992666;28;20030;-63
2023/02/28 13:46:33;;;;;;;;;;;;;;;;;;4975315;28;20026;-63
2023/02/28 13:49:32;;;;;;;15.98;10.90;;;;;;;;;;4975663;28;20304;-61
2023/02/28 13:52:13;;;;;;;16.92;11.07;;;;;;;;;;4950073;28;20308;-63
2023/02/28 13:54:40;;;;;;;15.95;10.85;;;;;;;;;;4975350;28;20030;-64
2023/02/28 13:57:12;;;;;;;16.80;11.10;;;;;;;;;;4992854;28;20033;-65
2023/02/28 13:59:38;;;;;;;16.20;11.68;;;;;;;;;;4992876;28;20037;-64
2023/02/28 14:02:20;;;;;;;16.33;11.20;;;;;;;;;;4975859;28;20034;-64
2023/02/28 14:04:46;;;;;;;17.65;12.60;;;;;;;;;;5009374;28;20049;-64
2023/02/28 14:07:23;;;;;;;18.30;11.55;;;;;;;;;;5013025;28;20092;-64
2023/02/28 14:09:56;;;;;;;15.40;10.75;;;;;;;;;;5019898;28;20391;-64
2023/02/28 14:12:41;;;;;;;17.30;11.40;;;;;;;;;;5002011;28;20395;-62
2023/02/28 14:15:26;;;;;;;15.90;11.70;;;;;;;;;;5016312;28;20101;-67
2023/02/28 14:17:56;;;;;;;15.40;11.10;;;;;;;;;;4994694;28;20022;-64
2023/02/28 14:20:25;;;;;;;16.08;11.07;;;;;;;;;;5012034;28;20398;-64
2023/02/28 14:23:05;;;;;;;16.58;11.63;;;;;;;;;;5012010;28;20022;-65
2023/02/28 14:25:37;;;;;;;16.80;11.77;;;;;;;;;;5011883;28;20044;-64
2023/02/28 14:28:06;;;;;;;17.17;11.77;;;;;;;;;;5012212;28;20029;-64
2023/02/28 14:30:51;;;;;;;16.60;11.57;;;;;;;;;;5012392;28;20382;-64
2023/02/28 14:33:47;;;;;;;15.77;11.02;;;;;;;;;;5011952;28;20072;-66